createdAt,value
2022-08-03T00:03:30.544Z,20.70
2022-08-03T00:08:32.376Z,20.50
2022-08-03T00:13:39.575Z,20.20
2022-08-03T00:18:41.533Z,20.10
2022-08-03T00:23:51.888Z,20.10
2022-08-03T00:28:54.394Z,20.10
2022-08-03T00:33:58.982Z,20.10
2022-08-03T00:39:01.743Z,19.90
2022-08-03T00:44:03.953Z,20.00
2022-08-03T00:49:05.792Z,20.00
2022-08-03T00:54:07.563Z,19.70
2022-08-03T00:59:10.545Z,19.80
2022-08-03T01:04:12.422Z,19.70
2022-08-03T01:09:31.452Z,19.60
2022-08-03T01:14:41.567Z,19.60
2022-08-03T01:20:07.777Z,19.50
2022-08-03T01:25:32.856Z,19.00
2022-08-03T01:30:37.865Z,19.00
2022-08-03T01:35:57.714Z,18.70
2022-08-03T01:41:07.376Z,18.90
2022-08-03T01:46:10.266Z,19.10
2022-08-03T01:51:12.988Z,19.10
2022-08-03T01:56:17.618Z,19.10
2022-08-03T02:01:22.157Z,18.90
2022-08-03T02:07:00.815Z,19.00
2022-08-03T02:11:48.045Z,19.00
2022-08-03T02:16:51.562Z,19.00
2022-08-03T02:21:57.387Z,18.90
2022-08-03T02:27:06.707Z,18.70
2022-08-03T02:32:16.217Z,18.70
2022-08-03T02:37:20.053Z,18.20
2022-08-03T02:42:23.243Z,18.30
2022-08-03T02:47:27.939Z,18.10
2022-08-03T02:52:31.279Z,18.30
2022-08-03T02:57:35.022Z,18.30
2022-08-03T03:02:37.935Z,18.20
2022-08-03T03:07:52.087Z,18.30
2022-08-03T03:12:59.283Z,18.30
2022-08-03T03:18:01.881Z,18.30
2022-08-03T03:23:05.027Z,18.20
2022-08-03T03:28:07.022Z,18.30
2022-08-03T03:33:09.167Z,18.10
2022-08-03T03:38:11.232Z,18.10
2022-08-03T03:43:13.459Z,18.10
2022-08-03T03:48:15.448Z,18.00
2022-08-03T03:53:17.352Z,18.00
2022-08-03T03:58:20.103Z,17.90
2022-08-03T04:03:26.813Z,18.00
2022-08-03T04:08:47.040Z,18.00
2022-08-03T04:14:05.047Z,18.00
2022-08-03T04:19:11.659Z,18.10
2022-08-03T04:24:15.325Z,18.00
2022-08-03T04:29:19.431Z,18.00
2022-08-03T04:34:21.345Z,18.10
2022-08-03T04:39:26.532Z,17.70
2022-08-03T04:44:29.808Z,18.00
2022-08-03T04:49:32.241Z,20.20
2022-08-03T04:54:41.870Z,21.40
2022-08-03T04:59:43.783Z,23.20
2022-08-03T05:04:46.560Z,25.30
2022-08-03T05:09:52.318Z,27.00
2022-08-03T05:14:55.858Z,27.20
2022-08-03T05:19:57.652Z,27.30
2022-08-03T05:25:00.732Z,27.50
2022-08-03T05:30:31.532Z,29.50
2022-08-03T05:36:00.766Z,30.10
2022-08-03T05:40:57.585Z,28.60
2022-08-03T05:46:13.037Z,27.70
2022-08-03T05:51:15.166Z,28.80
2022-08-03T05:56:17.167Z,30.80
2022-08-03T06:01:23.912Z,31.90
2022-08-03T06:06:29.309Z,32.10
2022-08-03T06:11:33.679Z,31.70
2022-08-03T06:16:35.755Z,32.20
2022-08-03T06:21:37.424Z,32.60
2022-08-03T06:26:42.007Z,33.80
2022-08-03T06:31:43.707Z,31.90
2022-08-03T06:36:48.394Z,32.20
2022-08-03T06:41:50.192Z,32.10
2022-08-03T06:46:53.081Z,33.20
2022-08-03T06:52:04.908Z,33.90
2022-08-03T06:57:11.531Z,34.30
2022-08-03T07:02:19.016Z,34.00
2022-08-03T07:07:21.224Z,33.40
2022-08-03T07:12:22.963Z,34.30
2022-08-03T07:17:24.803Z,33.40
2022-08-03T07:22:27.053Z,33.60
2022-08-03T07:27:29.802Z,34.10
2022-08-03T07:32:31.904Z,33.80
2022-08-03T07:37:34.192Z,34.10
2022-08-03T07:42:35.969Z,33.80
2022-08-03T07:47:37.772Z,33.30
2022-08-03T07:52:48.480Z,32.50
2022-08-03T07:58:01.255Z,34.00
2022-08-03T08:03:03.438Z,35.00
2022-08-03T08:08:05.231Z,34.70
2022-08-03T08:13:07.017Z,34.70
2022-08-03T08:18:08.746Z,35.00
2022-08-03T08:23:33.236Z,35.50
2022-08-03T08:28:33.827Z,35.60
2022-08-03T08:34:02.187Z,36.50
2022-08-03T08:38:57.997Z,36.80
2022-08-03T08:44:00.178Z,36.60
2022-08-03T08:49:04.583Z,36.30
2022-08-03T08:54:08.419Z,36.10
2022-08-03T08:59:10.407Z,36.00
2022-08-03T09:04:12.295Z,37.10
2022-08-03T09:09:16.824Z,37.40
2022-08-03T09:14:45.396Z,36.40
2022-08-03T09:20:08.805Z,37.60
2022-08-03T09:25:24.302Z,37.40
2022-08-03T09:30:34.226Z,37.70
2022-08-03T09:35:54.757Z,37.20
2022-08-03T09:41:00.425Z,37.90
2022-08-03T09:46:04.726Z,38.00
2022-08-03T09:51:33.000Z,38.00
2022-08-03T09:56:43.926Z,37.30
2022-08-03T10:01:45.695Z,37.90
2022-08-03T10:07:03.516Z,37.30
2022-08-03T10:12:12.984Z,38.30
2022-08-03T10:17:15.586Z,38.60
2022-08-03T10:22:23.321Z,38.80
2022-08-03T10:27:27.422Z,38.00
2022-08-03T10:32:38.591Z,38.00
2022-08-03T10:37:56.496Z,38.40
2022-08-03T10:43:11.991Z,38.40
2022-08-03T10:48:14.554Z,38.30
2022-08-03T10:53:18.676Z,38.20
2022-08-03T10:58:53.245Z,38.30
2022-08-03T11:03:59.050Z,37.60
2022-08-03T11:09:19.504Z,37.70
2022-08-03T11:14:22.164Z,37.30
2022-08-03T11:19:56.922Z,37.20
2022-08-03T11:25:00.133Z,38.10
2022-08-03T11:30:29.021Z,38.00
2022-08-03T11:35:31.994Z,37.70
2022-08-03T11:40:47.517Z,38.30
2022-08-03T11:46:03.701Z,38.50
2022-08-03T11:51:07.920Z,39.00
2022-08-03T11:56:12.969Z,39.20
2022-08-03T12:01:21.196Z,39.00
2022-08-03T12:06:24.667Z,39.60
2022-08-03T12:11:26.829Z,38.40
2022-08-03T12:16:28.906Z,38.60
2022-08-03T12:21:31.493Z,38.40
2022-08-03T12:26:58.372Z,38.70
2022-08-03T12:32:01.440Z,38.30
2022-08-03T12:37:05.380Z,36.20
2022-08-03T12:42:31.177Z,38.40
2022-08-03T12:47:59.382Z,38.30
2022-08-03T12:53:03.953Z,38.90
2022-08-03T12:58:07.936Z,38.60
2022-08-03T13:08:31.461Z,38.30
2022-08-03T13:13:39.761Z,38.90
2022-08-03T13:18:41.673Z,39.40
2022-08-03T13:23:44.122Z,39.20
2022-08-03T13:28:45.911Z,39.40
2022-08-03T13:33:47.633Z,39.60
2022-08-03T13:38:49.365Z,39.80
2022-08-03T13:44:06.686Z,39.10
2022-08-03T13:49:12.993Z,39.00
2022-08-03T13:54:14.753Z,38.50
2022-08-03T13:59:16.481Z,38.70
2022-08-03T14:04:21.895Z,38.90
2022-08-03T14:09:24.215Z,38.80
2022-08-03T14:14:25.958Z,38.60
2022-08-03T14:19:28.156Z,38.10
2022-08-03T14:24:30.132Z,38.20
2022-08-03T14:29:32.118Z,37.40
2022-08-03T14:34:33.844Z,38.40
2022-08-03T14:45:01.790Z,39.00
2022-08-03T14:50:36.511Z,39.10
2022-08-03T14:55:29.443Z,38.30
2022-08-03T15:00:41.024Z,38.50
2022-08-03T15:05:42.762Z,38.60
2022-08-03T15:10:45.600Z,38.30
2022-08-03T15:15:48.445Z,37.10
2022-08-03T15:20:50.851Z,37.90
2022-08-03T15:26:30.331Z,38.10
2022-08-03T15:31:18.961Z,37.90
2022-08-03T15:36:21.069Z,37.80
2022-08-03T15:41:22.815Z,37.40
2022-08-03T15:46:29.733Z,37.60
2022-08-03T15:51:31.844Z,37.60
2022-08-03T15:56:33.718Z,37.10
2022-08-03T16:01:35.575Z,36.60
2022-08-03T16:06:37.389Z,36.10
2022-08-03T16:11:39.178Z,36.00
2022-08-03T16:16:41.150Z,35.80
2022-08-03T16:21:48.179Z,35.60
2022-08-03T16:26:50.724Z,35.50
2022-08-03T16:31:52.734Z,35.40
2022-08-03T16:36:54.650Z,35.10
2022-08-03T16:42:01.293Z,34.60
2022-08-03T16:47:03.734Z,34.60
2022-08-03T16:52:07.139Z,34.80
2022-08-03T16:57:09.005Z,34.70
2022-08-03T17:02:21.875Z,34.50
2022-08-03T17:07:31.668Z,34.30
2022-08-03T17:12:33.451Z,34.20
2022-08-03T17:17:53.459Z,34.20
2022-08-03T17:23:06.995Z,34.10
2022-08-03T17:28:48.359Z,34.20
2022-08-03T17:33:40.336Z,33.80
2022-08-03T17:38:54.911Z,33.70
2022-08-03T17:44:15.777Z,33.80
2022-08-03T17:49:25.191Z,33.70
2022-08-03T17:55:55.334Z,33.50
2022-08-03T18:00:34.088Z,33.50
2022-08-03T18:06:12.055Z,33.40
2022-08-03T18:11:03.571Z,33.30
2022-08-03T18:16:33.425Z,32.90
2022-08-03T18:22:02.032Z,33.00
2022-08-03T18:27:02.481Z,32.70
2022-08-03T18:32:12.942Z,32.40
2022-08-03T18:37:23.096Z,32.40
2022-08-03T18:42:27.004Z,32.20
2022-08-03T18:47:51.506Z,32.10
2022-08-03T18:53:16.319Z,32.00
2022-08-03T18:58:46.609Z,31.60
2022-08-03T19:03:53.089Z,31.00
2022-08-03T19:08:56.054Z,30.60
2022-08-03T19:14:00.161Z,30.20
2022-08-03T19:19:02.527Z,30.00
2022-08-03T19:29:58.779Z,29.50
2022-08-03T19:34:53.403Z,29.40
2022-08-03T19:39:57.970Z,29.20
2022-08-03T19:45:13.963Z,29.20
2022-08-03T19:50:18.912Z,29.00
2022-08-03T19:55:22.775Z,28.80
2022-08-03T20:05:52.267Z,28.90
2022-08-03T20:10:56.076Z,28.60
2022-08-03T20:15:58.114Z,28.50
2022-08-03T20:21:06.428Z,28.30
2022-08-03T20:26:20.106Z,28.20
2022-08-03T20:31:32.395Z,28.10
2022-08-03T20:36:38.291Z,27.80
2022-08-03T20:41:41.121Z,27.60
2022-08-03T20:46:53.152Z,27.40
2022-08-03T20:52:01.915Z,27.40
2022-08-03T20:57:09.503Z,26.90
2022-08-03T21:02:12.620Z,26.90
2022-08-03T21:07:23.954Z,26.90
2022-08-03T21:12:47.846Z,26.50
2022-08-03T21:13:03.413Z,28.90
2022-08-03T21:13:11.242Z,29.70
2022-08-03T21:17:54.537Z,26.20
2022-08-03T21:22:57.800Z,25.80
2022-08-03T21:28:00.874Z,25.90
2022-08-03T21:33:06.570Z,26.10
2022-08-03T21:38:20.725Z,25.90
2022-08-03T21:43:31.817Z,25.80
2022-08-03T21:48:38.827Z,25.90
2022-08-03T21:54:02.558Z,25.50
2022-08-03T21:59:07.731Z,25.60
2022-08-03T22:04:11.843Z,25.40
2022-08-03T22:09:13.992Z,25.30
2022-08-03T22:14:15.940Z,25.20
2022-08-03T22:19:17.730Z,25.10
2022-08-03T22:24:24.039Z,25.20
2022-08-03T22:29:25.951Z,25.10
2022-08-03T22:34:29.486Z,25.20
2022-08-03T22:39:31.472Z,25.20
2022-08-03T22:44:35.677Z,25.20
2022-08-03T22:49:38.252Z,25.20
2022-08-03T22:54:41.059Z,25.10
2022-08-03T22:59:44.830Z,24.90
2022-08-03T23:04:51.644Z,24.90
2022-08-03T23:09:55.179Z,24.90
2022-08-03T23:15:03.063Z,24.80
2022-08-03T23:20:08.189Z,24.80
2022-08-03T23:25:11.341Z,24.70
2022-08-03T23:30:13.219Z,24.70
2022-08-03T23:36:27.533Z,24.70
2022-08-03T23:40:59.410Z,24.80
2022-08-03T23:46:02.825Z,24.70
2022-08-03T23:51:10.214Z,24.50
2022-08-03T23:56:27.208Z,24.30
